createdAt,value
2019-06-15T00:02:00.893Z,99.90
2019-06-15T00:04:38.169Z,99.90
2019-06-15T00:07:08.228Z,99.90
2019-06-15T00:09:38.313Z,99.90
2019-06-15T00:12:11.538Z,99.90
2019-06-15T00:14:47.597Z,99.90
2019-06-15T00:17:20.336Z,99.90
2019-06-15T00:21:06.232Z,99.90
2019-06-15T00:30:09.098Z,99.90
2019-06-15T00:33:17.278Z,99.90
2019-06-15T00:35:53.270Z,99.90
2019-06-15T00:38:23.370Z,99.90
2019-06-15T00:40:54.484Z,99.90
2019-06-15T01:02:27.413Z,99.90
2019-06-15T01:04:57.501Z,99.90
2019-06-15T01:07:33.449Z,99.90
2019-06-15T01:10:07.942Z,99.90
2019-06-15T01:12:39.046Z,99.90
2019-06-15T01:46:59.694Z,99.90
2019-06-15T03:38:40.464Z,99.90
2019-06-15T03:41:37.803Z,99.90
2019-06-15T03:44:07.889Z,99.90
2019-06-15T03:46:44.839Z,99.90
2019-06-15T05:56:56.042Z,99.90
2019-06-15T07:10:11.617Z,73.20
2019-06-15T07:12:41.701Z,74.10
2019-06-15T07:15:12.394Z,73.90
2019-06-15T07:17:42.475Z,74.60
2019-06-15T07:20:13.968Z,74.80
2019-06-15T07:22:44.080Z,75.90
2019-06-15T07:25:15.734Z,76.10
2019-06-15T07:28:08.104Z,75.20
2019-06-15T07:30:50.870Z,74.00
2019-06-15T07:33:20.950Z,73.20
2019-06-15T07:35:51.034Z,72.40
2019-06-15T07:38:23.673Z,71.80
2019-06-15T07:40:59.462Z,70.70
2019-06-15T07:43:29.542Z,70.90
2019-06-15T07:45:59.617Z,69.40
2019-06-15T07:48:29.693Z,68.90
2019-06-15T07:50:59.786Z,68.30
2019-06-15T07:53:31.776Z,67.80
2019-06-15T07:56:01.854Z,64.10
2019-06-15T07:58:31.938Z,63.50
2019-06-15T08:01:02.090Z,62.00
2019-06-15T08:03:32.184Z,61.90
2019-06-15T08:06:02.266Z,62.80
2019-06-15T08:08:32.355Z,62.50
2019-06-15T08:11:02.481Z,62.80
2019-06-15T08:13:33.545Z,62.30
2019-06-15T08:16:11.329Z,62.70
2019-06-15T08:18:41.414Z,60.90
2019-06-15T08:21:11.509Z,60.70
2019-06-15T08:23:41.820Z,60.90
2019-06-15T08:26:17.596Z,60.50
2019-06-15T08:28:47.667Z,59.40
2019-06-15T08:31:23.018Z,59.90
2019-06-15T08:33:56.328Z,59.50
2019-06-15T08:36:26.569Z,60.90
2019-06-15T08:38:56.853Z,60.20
2019-06-15T08:41:27.113Z,60.80
2019-06-15T08:43:57.226Z,60.80
2019-06-15T08:46:28.270Z,59.50
2019-06-15T08:48:58.469Z,58.70
2019-06-15T08:51:28.792Z,58.20
2019-06-15T08:53:58.866Z,57.20
2019-06-15T08:56:28.978Z,56.80
2019-06-15T08:58:59.049Z,56.30
2019-06-15T09:01:30.286Z,56.50
2019-06-15T09:04:00.362Z,55.90
2019-06-15T09:06:30.446Z,56.40
2019-06-15T09:09:00.550Z,56.50
2019-06-15T09:11:30.635Z,56.50
2019-06-15T09:14:01.957Z,56.00
2019-06-15T09:16:32.240Z,55.90
2019-06-15T09:19:02.454Z,56.00
2019-06-15T09:21:33.448Z,56.60
2019-06-15T09:24:03.522Z,55.80
2019-06-15T09:26:33.614Z,56.50
2019-06-15T09:29:11.390Z,54.70
2019-06-15T09:31:46.368Z,54.10
2019-06-15T09:34:19.271Z,54.80
2019-06-15T09:36:47.758Z,55.80
2019-06-15T09:39:17.844Z,54.50
2019-06-15T09:41:53.901Z,54.10
2019-06-15T09:44:23.974Z,54.20
2019-06-15T09:46:54.736Z,53.90
2019-06-15T09:49:24.808Z,53.90
2019-06-15T09:51:54.969Z,54.60
2019-06-15T09:54:27.917Z,56.20
2019-06-15T09:56:56.844Z,55.30
2019-06-15T09:59:26.939Z,55.40
2019-06-15T10:01:57.030Z,55.80
2019-06-15T10:04:27.123Z,55.00
2019-06-15T10:06:57.202Z,53.70
2019-06-15T10:09:27.274Z,51.70
2019-06-15T10:11:58.248Z,52.10
2019-06-15T10:14:28.327Z,51.70
2019-06-15T10:16:58.411Z,51.30
2019-06-15T10:19:31.466Z,52.40
2019-06-15T10:22:01.562Z,50.70
2019-06-15T10:24:31.650Z,49.40
2019-06-15T10:27:06.351Z,48.50
2019-06-15T10:29:41.863Z,48.60
2019-06-15T10:32:08.212Z,48.20
2019-06-15T10:34:38.357Z,49.10
2019-06-15T10:37:08.394Z,48.10
2019-06-15T10:39:38.508Z,48.70
2019-06-15T10:42:14.362Z,49.60
2019-06-15T10:44:44.477Z,48.90
2019-06-15T10:47:14.527Z,48.60
2019-06-15T10:49:44.648Z,47.60
2019-06-15T10:52:14.709Z,46.30
2019-06-15T10:54:44.793Z,45.90
2019-06-15T10:57:14.905Z,44.80
2019-06-15T10:59:56.721Z,46.30
2019-06-15T11:02:16.758Z,47.40
2019-06-15T11:04:46.857Z,48.30
2019-06-15T11:07:16.928Z,46.90
2019-06-15T11:09:47.865Z,46.30
2019-06-15T11:12:17.950Z,47.10
2019-06-15T11:14:48.030Z,48.70
2019-06-15T11:17:18.150Z,49.30
2019-06-15T11:19:48.262Z,48.50
2019-06-15T11:22:18.313Z,49.20
2019-06-15T11:24:48.461Z,48.40
2019-06-15T11:27:18.618Z,47.80
2019-06-15T11:29:50.638Z,47.00
2019-06-15T11:32:20.719Z,47.20
2019-06-15T11:34:52.038Z,46.60
2019-06-15T11:37:22.226Z,48.60
2019-06-15T11:39:52.302Z,49.80
2019-06-15T11:42:22.387Z,47.60
2019-06-15T11:44:52.462Z,46.50
2019-06-15T11:47:22.786Z,46.30
2019-06-15T11:49:53.042Z,47.10
2019-06-15T11:52:23.122Z,47.60
2019-06-15T11:54:54.158Z,48.60
2019-06-15T11:57:24.307Z,48.60
2019-06-15T11:59:54.392Z,48.50
2019-06-15T12:02:24.463Z,47.90
2019-06-15T12:04:58.372Z,48.80
2019-06-15T12:07:26.336Z,47.80
2019-06-15T12:09:56.427Z,47.00
2019-06-15T12:12:26.494Z,48.20
2019-06-15T12:14:56.575Z,48.40
2019-06-15T12:17:26.730Z,49.90
2019-06-15T12:19:56.802Z,49.70
2019-06-15T12:22:26.876Z,49.80
2019-06-15T12:25:00.015Z,48.70
2019-06-15T12:27:30.098Z,47.50
2019-06-15T12:30:00.178Z,48.40
2019-06-15T12:32:30.274Z,48.90
2019-06-15T12:35:08.022Z,48.70
2019-06-15T12:37:38.102Z,48.70
2019-06-15T12:40:08.610Z,48.20
2019-06-15T12:42:38.754Z,49.10
2019-06-15T12:45:10.703Z,48.70
2019-06-15T12:47:40.831Z,49.60
2019-06-15T12:50:19.934Z,50.40
2019-06-15T12:52:50.092Z,49.00
2019-06-15T12:55:20.164Z,48.50
2019-06-15T12:57:52.936Z,47.40
2019-06-15T13:00:26.783Z,48.40
2019-06-15T13:02:57.180Z,51.50
2019-06-15T13:05:27.270Z,51.60
2019-06-15T13:07:57.342Z,50.60
2019-06-15T13:10:28.363Z,50.90
2019-06-15T13:12:58.599Z,51.80
2019-06-15T13:15:28.803Z,52.00
2019-06-15T13:17:58.880Z,51.50
2019-06-15T13:20:31.026Z,50.90
2019-06-15T13:23:01.262Z,51.30
2019-06-15T13:25:31.350Z,49.80
2019-06-15T13:28:01.419Z,50.10
2019-06-15T13:30:31.560Z,51.60
2019-06-15T13:33:06.465Z,51.90
2019-06-15T13:35:36.556Z,50.80
2019-06-15T13:38:06.639Z,49.80
2019-06-15T13:40:36.722Z,49.60
2019-06-15T13:43:07.066Z,50.90
2019-06-15T13:45:37.156Z,49.30
2019-06-15T13:48:07.346Z,48.00
2019-06-15T13:50:38.360Z,47.30
2019-06-15T13:53:08.516Z,46.10
2019-06-15T13:55:38.564Z,46.70
2019-06-15T13:58:14.583Z,46.60
2019-06-15T14:00:44.671Z,46.50
2019-06-15T14:03:14.785Z,46.10
2019-06-15T14:05:45.831Z,47.90
2019-06-15T14:08:16.079Z,48.60
2019-06-15T14:10:48.102Z,49.20
2019-06-15T14:13:18.179Z,49.00
2019-06-15T14:15:48.266Z,51.10
2019-06-15T14:18:18.427Z,51.30
2019-06-15T14:20:50.399Z,50.80
2019-06-15T14:23:32.627Z,49.40
2019-06-15T14:26:02.715Z,48.70
2019-06-15T14:28:33.686Z,49.60
2019-06-15T14:31:03.763Z,49.40
2019-06-15T14:33:33.858Z,48.90
2019-06-15T14:36:04.015Z,47.20
2019-06-15T14:38:37.367Z,46.40
2019-06-15T14:41:08.727Z,45.50
2019-06-15T14:43:39.451Z,45.60
2019-06-15T14:46:09.631Z,45.90
2019-06-15T14:48:40.076Z,46.70
2019-06-15T14:51:10.155Z,47.20
2019-06-15T14:53:45.116Z,48.10
2019-06-15T14:56:20.967Z,47.00
2019-06-15T14:58:57.123Z,46.60
2019-06-15T15:01:28.241Z,46.00
2019-06-15T15:03:58.303Z,46.70
2019-06-15T15:06:28.406Z,45.10
2019-06-15T15:08:58.503Z,43.20
2019-06-15T15:11:28.951Z,43.30
2019-06-15T15:13:59.017Z,43.80
2019-06-15T15:16:29.092Z,43.30
2019-06-15T15:18:59.179Z,43.50
2019-06-15T15:21:29.258Z,44.10
2019-06-15T15:23:59.552Z,45.30
2019-06-15T15:26:31.613Z,46.30
2019-06-15T15:29:01.687Z,47.60
2019-06-15T15:31:37.918Z,47.60
2019-06-15T15:34:08.163Z,47.80
2019-06-15T15:36:38.422Z,48.80
2019-06-15T15:39:10.385Z,49.30
2019-06-15T15:41:41.096Z,49.30
2019-06-15T15:44:16.979Z,49.10
2019-06-15T15:46:49.071Z,49.20
2019-06-15T15:49:28.492Z,49.80
2019-06-15T15:51:58.579Z,50.20
2019-06-15T15:54:37.895Z,50.80
2019-06-15T15:57:07.979Z,50.80
2019-06-15T15:59:38.057Z,50.90
2019-06-15T16:02:08.119Z,51.90
2019-06-15T16:04:38.241Z,52.20
2019-06-15T16:07:08.327Z,52.50
2019-06-15T16:09:38.404Z,51.90
2019-06-15T16:12:08.483Z,51.70
2019-06-15T16:14:38.553Z,52.00
2019-06-15T16:17:08.627Z,52.40
2019-06-15T16:19:38.708Z,52.50
2019-06-15T16:22:20.712Z,51.00
2019-06-15T16:24:56.590Z,49.80
2019-06-15T16:27:26.737Z,50.00
2019-06-15T16:29:57.063Z,50.80
2019-06-15T16:32:30.106Z,51.30
2019-06-15T16:35:09.621Z,51.00
2019-06-15T16:37:45.809Z,50.60
2019-06-15T16:40:21.400Z,49.60
2019-06-15T16:42:51.505Z,49.50
2019-06-15T16:45:21.567Z,48.80
2019-06-15T16:47:52.747Z,48.60
2019-06-15T16:50:28.856Z,49.20
2019-06-15T16:53:09.040Z,50.60
2019-06-15T16:55:46.760Z,51.50
2019-06-15T16:58:17.128Z,51.90
2019-06-15T17:00:49.144Z,52.70
2019-06-15T17:03:24.812Z,53.60
2019-06-15T17:05:51.020Z,54.20
2019-06-15T17:08:21.191Z,54.20
2019-06-15T17:10:51.479Z,53.80
2019-06-15T17:13:21.569Z,53.30
2019-06-15T17:15:51.641Z,53.60
2019-06-15T17:18:21.731Z,54.00
2019-06-15T17:20:56.412Z,54.00
2019-06-15T17:23:27.611Z,53.50
2019-06-15T17:25:58.220Z,53.00
2019-06-15T17:28:28.299Z,53.30
2019-06-15T17:31:18.120Z,52.40
2019-06-15T17:33:47.607Z,51.10
2019-06-15T17:36:17.354Z,51.10
2019-06-15T17:38:48.324Z,51.70
2019-06-15T17:41:18.391Z,51.90
2019-06-15T17:43:49.485Z,51.90
2019-06-15T17:46:19.948Z,52.50
2019-06-15T17:48:50.104Z,53.60
2019-06-15T17:51:21.099Z,54.10
2019-06-15T17:53:51.180Z,55.20
2019-06-15T17:56:21.275Z,55.50
2019-06-15T17:58:57.440Z,56.00
2019-06-15T18:01:31.367Z,56.40
2019-06-15T18:04:01.456Z,56.70
2019-06-15T18:06:31.517Z,56.80
2019-06-15T18:09:01.576Z,57.30
2019-06-15T18:11:31.749Z,57.50
2019-06-15T18:14:02.143Z,57.70
2019-06-15T18:16:36.800Z,58.00
2019-06-15T18:19:07.018Z,58.10
2019-06-15T18:21:41.011Z,58.30
2019-06-15T18:24:09.979Z,58.60
2019-06-15T18:26:40.379Z,58.70
2019-06-15T18:29:10.468Z,59.10
2019-06-15T18:31:40.611Z,59.00
2019-06-15T18:34:13.261Z,59.10
2019-06-15T18:36:43.419Z,59.40
2019-06-15T18:39:13.499Z,59.70
2019-06-15T18:41:46.131Z,59.70
2019-06-15T18:44:16.627Z,60.10
2019-06-15T18:46:46.715Z,60.40
2019-06-15T18:49:16.787Z,61.00
2019-06-15T18:51:57.847Z,61.90
2019-06-15T18:54:36.435Z,62.30
2019-06-15T18:57:17.392Z,63.20
2019-06-15T18:59:56.160Z,63.50
2019-06-15T19:02:26.690Z,64.10
2019-06-15T19:04:56.808Z,64.70
2019-06-15T19:07:32.257Z,65.10
2019-06-15T19:10:07.335Z,65.50
2019-06-15T19:12:39.463Z,65.90
2019-06-15T19:15:12.221Z,66.20
2019-06-15T19:17:42.307Z,66.50
2019-06-15T19:20:12.457Z,66.90
2019-06-15T19:22:42.546Z,67.50
2019-06-15T19:25:13.069Z,68.20
2019-06-15T19:27:53.176Z,68.90
2019-06-15T19:30:23.481Z,69.60
2019-06-15T19:33:00.355Z,70.10
2019-06-15T19:35:30.515Z,70.90
2019-06-15T19:38:00.831Z,71.10
2019-06-15T19:40:30.939Z,71.30
2019-06-15T19:43:01.324Z,72.10
2019-06-15T19:45:33.351Z,71.80
2019-06-15T19:48:07.299Z,72.00
2019-06-15T19:50:38.384Z,72.60
2019-06-15T19:53:08.703Z,73.00
2019-06-15T19:55:38.794Z,73.40
2019-06-15T19:58:09.863Z,73.80
2019-06-15T20:00:40.912Z,74.40
2019-06-15T20:03:13.015Z,74.80
2019-06-15T20:05:43.102Z,75.40
2019-06-15T20:08:13.190Z,75.90
2019-06-15T20:10:43.259Z,76.40
2019-06-15T20:13:16.257Z,76.80
2019-06-15T20:15:47.107Z,77.10
2019-06-15T20:18:17.849Z,77.60
2019-06-15T20:20:48.060Z,78.10
2019-06-15T20:23:18.199Z,78.50
2019-06-15T20:25:48.288Z,78.70
2019-06-15T20:28:18.404Z,78.90
2019-06-15T20:30:49.677Z,79.50
2019-06-15T20:33:19.927Z,79.70
2019-06-15T20:35:50.019Z,79.50
2019-06-15T20:38:20.124Z,79.60
2019-06-15T20:40:50.201Z,80.10
2019-06-15T20:43:20.281Z,80.10
2019-06-15T20:45:51.346Z,80.50
2019-06-15T20:48:27.496Z,81.00
2019-06-15T20:50:57.571Z,81.20
2019-06-15T20:53:27.653Z,81.50
2019-06-15T20:55:57.739Z,82.00
2019-06-15T20:58:27.839Z,82.40
2019-06-15T21:01:07.004Z,82.70
2019-06-15T21:03:38.683Z,83.10
2019-06-15T21:06:16.851Z,84.20
2019-06-15T21:08:46.960Z,83.80
2019-06-15T21:11:26.524Z,84.40
2019-06-15T21:13:56.663Z,84.70
2019-06-15T21:16:27.077Z,85.10
2019-06-15T21:18:57.282Z,85.50
2019-06-15T21:21:27.776Z,85.60
2019-06-15T21:23:58.860Z,86.00
2019-06-15T21:26:28.941Z,86.10
2019-06-15T21:28:59.085Z,86.20
2019-06-15T21:31:29.159Z,86.30
2019-06-15T21:33:59.263Z,86.40
2019-06-15T21:36:30.235Z,86.70
2019-06-15T21:39:01.324Z,87.20
2019-06-15T21:41:31.403Z,87.60
2019-06-15T21:44:06.382Z,88.20
2019-06-15T21:46:37.729Z,88.60
2019-06-15T21:49:15.842Z,89.00
2019-06-15T21:51:57.634Z,89.40
2019-06-15T21:54:27.709Z,90.00
2019-06-15T21:56:57.812Z,90.20
2019-06-15T21:59:27.960Z,90.40
2019-06-15T22:02:01.236Z,90.60
2019-06-15T22:04:31.328Z,90.70
2019-06-15T22:07:01.488Z,91.10
2019-06-15T22:09:31.798Z,91.70
2019-06-15T22:12:02.064Z,93.10
2019-06-15T22:14:35.732Z,96.00
2019-06-15T22:17:09.548Z,99.90
2019-06-15T22:19:39.628Z,99.90
2019-06-15T22:22:09.724Z,99.90
2019-06-15T22:24:39.818Z,99.90
2019-06-15T22:27:17.042Z,99.90
2019-06-15T22:29:47.482Z,99.90
2019-06-15T22:32:18.465Z,99.90
2019-06-15T22:34:48.552Z,99.90
2019-06-15T22:37:18.631Z,99.90
2019-06-15T22:39:48.720Z,99.90
2019-06-15T22:42:18.825Z,99.90
2019-06-15T22:44:49.925Z,99.90
2019-06-15T22:47:20.000Z,99.90
2019-06-15T22:49:58.028Z,99.90
2019-06-15T22:52:28.120Z,99.90
2019-06-15T22:54:58.225Z,99.90
2019-06-15T22:57:30.323Z,99.90
2019-06-15T23:00:01.358Z,99.90
2019-06-15T23:02:32.400Z,99.90
2019-06-15T23:05:02.544Z,99.90
2019-06-15T23:07:32.661Z,99.90
2019-06-15T23:10:07.021Z,99.90
2019-06-15T23:12:37.499Z,99.90
2019-06-15T23:15:08.268Z,99.90
2019-06-15T23:17:38.344Z,99.90
2019-06-15T23:20:10.624Z,99.90
2019-06-15T23:22:40.716Z,99.90
2019-06-15T23:25:10.961Z,99.90
2019-06-15T23:27:41.020Z,99.90
2019-06-15T23:30:11.715Z,99.90
2019-06-15T23:32:46.915Z,99.90
2019-06-15T23:35:20.526Z,99.90
2019-06-15T23:37:51.560Z,99.90
2019-06-15T23:40:23.288Z,99.90
2019-06-15T23:42:56.559Z,99.90
2019-06-15T23:45:26.995Z,99.90
2019-06-15T23:47:57.615Z,99.90
2019-06-15T23:50:27.803Z,99.90
2019-06-15T23:52:57.881Z,99.90
2019-06-15T23:55:27.964Z,99.90
2019-06-15T23:57:58.941Z,99.90
